sensor_id;sensor_type;location;lat;lon;timestamp;P1;durP1;ratioP1;P2;durP2;ratioP2
11342;SDS011;5726;42.160;24.746;2022-12-07T00:01:13;54.93;;;27.03;;
11342;SDS011;5726;42.160;24.746;2022-12-07T00:03:42;47.67;;;25.60;;
11342;SDS011;5726;42.160;24.746;2022-12-07T00:06:10;44.80;;;25.83;;
11342;SDS011;5726;42.160;24.746;2022-12-07T00:08:36;49.17;;;26.40;;
11342;SDS011;5726;42.160;24.746;2022-12-07T00:11:07;51.43;;;25.03;;
11342;SDS011;5726;42.160;24.746;2022-12-07T00:13:35;51.30;;;24.60;;
11342;SDS011;5726;42.160;24.746;2022-12-07T00:16:02;51.30;;;24.10;;
11342;SDS011;5726;42.160;24.746;2022-12-07T00:18:29;49.47;;;23.50;;
11342;SDS011;5726;42.160;24.746;2022-12-07T00:20:58;54.33;;;23.40;;
11342;SDS011;5726;42.160;24.746;2022-12-07T00:23:25;41.23;;;22.83;;
11342;SDS011;5726;42.160;24.746;2022-12-07T00:25:51;37.63;;;20.77;;
11342;SDS011;5726;42.160;24.746;2022-12-07T00:28:16;39.23;;;20.97;;
11342;SDS011;5726;42.160;24.746;2022-12-07T00:30:41;43.73;;;20.67;;
11342;SDS011;5726;42.160;24.746;2022-12-07T00:33:07;40.30;;;19.67;;
11342;SDS011;5726;42.160;24.746;2022-12-07T00:35:32;44.17;;;20.07;;
11342;SDS011;5726;42.160;24.746;2022-12-07T00:37:58;42.13;;;20.53;;
11342;SDS011;5726;42.160;24.746;2022-12-07T00:40:23;48.03;;;21.00;;
11342;SDS011;5726;42.160;24.746;2022-12-07T00:42:49;39.73;;;20.23;;
11342;SDS011;5726;42.160;24.746;2022-12-07T00:45:14;40.77;;;20.10;;
11342;SDS011;5726;42.160;24.746;2022-12-07T00:47:40;39.57;;;18.93;;
11342;SDS011;5726;42.160;24.746;2022-12-07T00:50:05;38.43;;;19.43;;
11342;SDS011;5726;42.160;24.746;2022-12-07T00:52:31;37.17;;;19.77;;
11342;SDS011;5726;42.160;24.746;2022-12-07T00:54:56;36.83;;;19.67;;
11342;SDS011;5726;42.160;24.746;2022-12-07T00:57:22;42.77;;;19.80;;
11342;SDS011;5726;42.160;24.746;2022-12-07T00:59:48;35.67;;;19.53;;
11342;SDS011;5726;42.160;24.746;2022-12-07T01:02:13;41.53;;;19.40;;
11342;SDS011;5726;42.160;24.746;2022-12-07T01:04:39;43.77;;;20.03;;
11342;SDS011;5726;42.160;24.746;2022-12-07T01:07:04;35.57;;;18.10;;
11342;SDS011;5726;42.160;24.746;2022-12-07T01:09:30;37.93;;;18.97;;
11342;SDS011;5726;42.160;24.746;2022-12-07T01:11:55;36.73;;;17.83;;
11342;SDS011;5726;42.160;24.746;2022-12-07T01:14:20;34.83;;;17.57;;
11342;SDS011;5726;42.160;24.746;2022-12-07T01:16:46;36.03;;;17.33;;
11342;SDS011;5726;42.160;24.746;2022-12-07T01:19:11;35.73;;;17.20;;
11342;SDS011;5726;42.160;24.746;2022-12-07T01:21:37;30.43;;;16.00;;
11342;SDS011;5726;42.160;24.746;2022-12-07T01:24:04;34.23;;;17.87;;
11342;SDS011;5726;42.160;24.746;2022-12-07T01:26:31;32.13;;;16.73;;
11342;SDS011;5726;42.160;24.746;2022-12-07T01:28:57;29.33;;;16.03;;
11342;SDS011;5726;42.160;24.746;2022-12-07T01:31:24;30.77;;;16.80;;
11342;SDS011;5726;42.160;24.746;2022-12-07T01:33:53;33.17;;;17.33;;
11342;SDS011;5726;42.160;24.746;2022-12-07T01:36:21;33.17;;;17.33;;
11342;SDS011;5726;42.160;24.746;2022-12-07T01:38:49;28.50;;;16.37;;
11342;SDS011;5726;42.160;24.746;2022-12-07T01:41:19;32.30;;;16.63;;
11342;SDS011;5726;42.160;24.746;2022-12-07T01:46:50;30.73;;;16.83;;
11342;SDS011;5726;42.160;24.746;2022-12-07T01:49:37;32.50;;;16.73;;
11342;SDS011;5726;42.160;24.746;2022-12-07T01:52:10;35.27;;;17.33;;
11342;SDS011;5726;42.160;24.746;2022-12-07T01:54:41;32.43;;;16.87;;
11342;SDS011;5726;42.160;24.746;2022-12-07T01:57:09;30.93;;;16.20;;
11342;SDS011;5726;42.160;24.746;2022-12-07T01:59:35;32.70;;;16.07;;
11342;SDS011;5726;42.160;24.746;2022-12-07T02:02:01;32.07;;;17.10;;
11342;SDS011;5726;42.160;24.746;2022-12-07T02:04:29;31.33;;;16.30;;
11342;SDS011;5726;42.160;24.746;2022-12-07T02:06:55;29.23;;;15.57;;
11342;SDS011;5726;42.160;24.746;2022-12-07T02:09:21;30.73;;;15.00;;
11342;SDS011;5726;42.160;24.746;2022-12-07T02:11:47;29.30;;;15.83;;
11342;SDS011;5726;42.160;24.746;2022-12-07T02:14:13;30.50;;;15.10;;
11342;SDS011;5726;42.160;24.746;2022-12-07T02:16:43;31.30;;;14.93;;
11342;SDS011;5726;42.160;24.746;2022-12-07T02:21:59;24.77;;;14.23;;
11342;SDS011;5726;42.160;24.746;2022-12-07T02:30:11;26.93;;;14.30;;
11342;SDS011;5726;42.160;24.746;2022-12-07T02:32:47;30.73;;;14.83;;
11342;SDS011;5726;42.160;24.746;2022-12-07T02:35:32;32.40;;;14.90;;
11342;SDS011;5726;42.160;24.746;2022-12-07T02:38:08;28.30;;;14.40;;
11342;SDS011;5726;42.160;24.746;2022-12-07T02:43:28;26.63;;;13.70;;
11342;SDS011;5726;42.160;24.746;2022-12-07T02:46:03;29.40;;;13.97;;
11342;SDS011;5726;42.160;24.746;2022-12-07T02:48:32;26.37;;;13.67;;
11342;SDS011;5726;42.160;24.746;2022-12-07T02:50:59;27.50;;;13.37;;
11342;SDS011;5726;42.160;24.746;2022-12-07T02:53:38;26.23;;;13.67;;
11342;SDS011;5726;42.160;24.746;2022-12-07T02:56:12;27.57;;;13.63;;
11342;SDS011;5726;42.160;24.746;2022-12-07T03:06:53;28.67;;;13.83;;
11342;SDS011;5726;42.160;24.746;2022-12-07T03:12:19;50.73;;;26.03;;
11342;SDS011;5726;42.160;24.746;2022-12-07T03:15:11;33.97;;;17.57;;
11342;SDS011;5726;42.160;24.746;2022-12-07T03:17:51;27.70;;;13.87;;
11342;SDS011;5726;42.160;24.746;2022-12-07T03:20:19;33.40;;;15.97;;
11342;SDS011;5726;42.160;24.746;2022-12-07T03:22:47;30.77;;;15.13;;
11342;SDS011;5726;42.160;24.746;2022-12-07T03:25:14;25.00;;;14.27;;
11342;SDS011;5726;42.160;24.746;2022-12-07T03:27:57;27.90;;;14.73;;
11342;SDS011;5726;42.160;24.746;2022-12-07T03:30:30;24.23;;;14.10;;
11342;SDS011;5726;42.160;24.746;2022-12-07T03:33:13;30.50;;;14.23;;
11342;SDS011;5726;42.160;24.746;2022-12-07T03:36:11;26.60;;;14.23;;
11342;SDS011;5726;42.160;24.746;2022-12-07T03:38:46;29.60;;;15.00;;
11342;SDS011;5726;42.160;24.746;2022-12-07T03:41:20;25.73;;;14.33;;
11342;SDS011;5726;42.160;24.746;2022-12-07T03:43:49;25.50;;;14.37;;
11342;SDS011;5726;42.160;24.746;2022-12-07T03:49:50;28.63;;;14.23;;
11342;SDS011;5726;42.160;24.746;2022-12-07T03:57:16;29.60;;;13.47;;
11342;SDS011;5726;42.160;24.746;2022-12-07T03:59:42;23.27;;;13.97;;
11342;SDS011;5726;42.160;24.746;2022-12-07T04:02:08;26.80;;;14.40;;
11342;SDS011;5726;42.160;24.746;2022-12-07T04:04:37;25.07;;;13.80;;
11342;SDS011;5726;42.160;24.746;2022-12-07T04:07:02;28.27;;;13.50;;
11342;SDS011;5726;42.160;24.746;2022-12-07T04:09:28;27.93;;;13.17;;
11342;SDS011;5726;42.160;24.746;2022-12-07T04:11:53;27.53;;;13.43;;
11342;SDS011;5726;42.160;24.746;2022-12-07T04:14:18;25.03;;;13.90;;
11342;SDS011;5726;42.160;24.746;2022-12-07T04:16:48;25.77;;;13.10;;
11342;SDS011;5726;42.160;24.746;2022-12-07T04:19:14;29.00;;;14.40;;
11342;SDS011;5726;42.160;24.746;2022-12-07T04:21:41;24.90;;;13.93;;
11342;SDS011;5726;42.160;24.746;2022-12-07T04:24:07;22.93;;;13.57;;
11342;SDS011;5726;42.160;24.746;2022-12-07T04:26:32;22.23;;;13.47;;
11342;SDS011;5726;42.160;24.746;2022-12-07T04:28:58;27.50;;;13.30;;
11342;SDS011;5726;42.160;24.746;2022-12-07T04:31:23;24.43;;;13.30;;
11342;SDS011;5726;42.160;24.746;2022-12-07T04:33:49;28.13;;;13.70;;
11342;SDS011;5726;42.160;24.746;2022-12-07T04:36:14;25.70;;;14.57;;
11342;SDS011;5726;42.160;24.746;2022-12-07T04:38:40;38.83;;;16.83;;
11342;SDS011;5726;42.160;24.746;2022-12-07T04:41:06;37.23;;;21.60;;
11342;SDS011;5726;42.160;24.746;2022-12-07T04:43:32;28.07;;;16.07;;
11342;SDS011;5726;42.160;24.746;2022-12-07T04:45:58;25.37;;;13.60;;
11342;SDS011;5726;42.160;24.746;2022-12-07T04:48:23;24.20;;;12.73;;
11342;SDS011;5726;42.160;24.746;2022-12-07T04:50:49;40.10;;;23.43;;
11342;SDS011;5726;42.160;24.746;2022-12-07T04:53:14;31.77;;;17.57;;
11342;SDS011;5726;42.160;24.746;2022-12-07T04:55:40;33.63;;;17.17;;
11342;SDS011;5726;42.160;24.746;2022-12-07T04:58:06;37.10;;;19.67;;
11342;SDS011;5726;42.160;24.746;2022-12-07T05:00:31;29.93;;;15.20;;
11342;SDS011;5726;42.160;24.746;2022-12-07T05:02:57;32.43;;;18.10;;
11342;SDS011;5726;42.160;24.746;2022-12-07T05:05:22;42.03;;;21.53;;
11342;SDS011;5726;42.160;24.746;2022-12-07T05:07:49;40.30;;;21.80;;
11342;SDS011;5726;42.160;24.746;2022-12-07T05:10:15;44.63;;;20.90;;
11342;SDS011;5726;42.160;24.746;2022-12-07T05:12:40;41.37;;;21.17;;
11342;SDS011;5726;42.160;24.746;2022-12-07T05:15:06;47.40;;;23.60;;
11342;SDS011;5726;42.160;24.746;2022-12-07T05:17:31;38.60;;;20.20;;
11342;SDS011;5726;42.160;24.746;2022-12-07T05:19:57;42.27;;;23.40;;
11342;SDS011;5726;42.160;24.746;2022-12-07T05:22:22;43.27;;;22.33;;
11342;SDS011;5726;42.160;24.746;2022-12-07T05:24:50;35.17;;;19.53;;
11342;SDS011;5726;42.160;24.746;2022-12-07T05:27:15;38.40;;;20.00;;
11342;SDS011;5726;42.160;24.746;2022-12-07T05:29:41;43.97;;;20.90;;
11342;SDS011;5726;42.160;24.746;2022-12-07T05:32:06;38.37;;;19.90;;
11342;SDS011;5726;42.160;24.746;2022-12-07T05:34:31;40.90;;;20.70;;
11342;SDS011;5726;42.160;24.746;2022-12-07T05:36:57;126.10;;;70.27;;
11342;SDS011;5726;42.160;24.746;2022-12-07T05:39:22;38.43;;;21.00;;
11342;SDS011;5726;42.160;24.746;2022-12-07T05:41:48;34.93;;;17.47;;
11342;SDS011;5726;42.160;24.746;2022-12-07T05:44:32;48.10;;;23.80;;
11342;SDS011;5726;42.160;24.746;2022-12-07T05:46:57;32.67;;;17.87;;
11342;SDS011;5726;42.160;24.746;2022-12-07T05:49:22;39.93;;;17.53;;
11342;SDS011;5726;42.160;24.746;2022-12-07T05:51:48;38.17;;;17.70;;
11342;SDS011;5726;42.160;24.746;2022-12-07T05:54:13;33.50;;;18.03;;
11342;SDS011;5726;42.160;24.746;2022-12-07T05:56:39;34.60;;;17.77;;
11342;SDS011;5726;42.160;24.746;2022-12-07T05:59:04;42.70;;;18.73;;
11342;SDS011;5726;42.160;24.746;2022-12-07T06:01:52;85.20;;;43.93;;
11342;SDS011;5726;42.160;24.746;2022-12-07T06:04:18;106.13;;;58.67;;
11342;SDS011;5726;42.160;24.746;2022-12-07T06:06:44;35.00;;;19.90;;
11342;SDS011;5726;42.160;24.746;2022-12-07T06:09:10;42.27;;;23.57;;
11342;SDS011;5726;42.160;24.746;2022-12-07T06:11:37;36.63;;;21.40;;
11342;SDS011;5726;42.160;24.746;2022-12-07T06:14:21;39.50;;;21.23;;
11342;SDS011;5726;42.160;24.746;2022-12-07T06:16:47;34.80;;;18.57;;
11342;SDS011;5726;42.160;24.746;2022-12-07T06:19:12;38.63;;;18.97;;
11342;SDS011;5726;42.160;24.746;2022-12-07T06:21:37;33.43;;;17.47;;
11342;SDS011;5726;42.160;24.746;2022-12-07T06:24:03;37.30;;;15.57;;
11342;SDS011;5726;42.160;24.746;2022-12-07T06:26:29;25.43;;;14.00;;
11342;SDS011;5726;42.160;24.746;2022-12-07T06:28:54;23.57;;;13.97;;
11342;SDS011;5726;42.160;24.746;2022-12-07T06:31:19;109.47;;;54.33;;
11342;SDS011;5726;42.160;24.746;2022-12-07T06:33:45;112.60;;;58.53;;
11342;SDS011;5726;42.160;24.746;2022-12-07T06:36:10;53.27;;;29.47;;
11342;SDS011;5726;42.160;24.746;2022-12-07T06:38:36;34.17;;;15.60;;
11342;SDS011;5726;42.160;24.746;2022-12-07T06:41:02;27.87;;;14.97;;
11342;SDS011;5726;42.160;24.746;2022-12-07T06:43:27;28.57;;;14.23;;
11342;SDS011;5726;42.160;24.746;2022-12-07T06:45:53;31.43;;;13.80;;
11342;SDS011;5726;42.160;24.746;2022-12-07T06:48:19;34.77;;;14.83;;
11342;SDS011;5726;42.160;24.746;2022-12-07T06:50:45;33.10;;;15.23;;
11342;SDS011;5726;42.160;24.746;2022-12-07T06:53:11;30.83;;;14.67;;
11342;SDS011;5726;42.160;24.746;2022-12-07T06:55:36;32.40;;;15.70;;
11342;SDS011;5726;42.160;24.746;2022-12-07T06:58:02;38.47;;;16.60;;
11342;SDS011;5726;42.160;24.746;2022-12-07T07:00:28;32.73;;;16.13;;
11342;SDS011;5726;42.160;24.746;2022-12-07T07:02:54;242.37;;;129.87;;
11342;SDS011;5726;42.160;24.746;2022-12-07T07:05:19;196.53;;;111.77;;
11342;SDS011;5726;42.160;24.746;2022-12-07T07:07:47;43.27;;;23.77;;
11342;SDS011;5726;42.160;24.746;2022-12-07T07:10:15;35.30;;;17.40;;
11342;SDS011;5726;42.160;24.746;2022-12-07T07:12:41;34.03;;;17.27;;
11342;SDS011;5726;42.160;24.746;2022-12-07T07:15:06;34.77;;;18.43;;
11342;SDS011;5726;42.160;24.746;2022-12-07T07:17:32;35.27;;;18.90;;
11342;SDS011;5726;42.160;24.746;2022-12-07T07:19:57;37.33;;;17.80;;
11342;SDS011;5726;42.160;24.746;2022-12-07T07:22:23;39.77;;;19.43;;
11342;SDS011;5726;42.160;24.746;2022-12-07T07:24:48;34.43;;;18.97;;
11342;SDS011;5726;42.160;24.746;2022-12-07T07:27:14;45.33;;;21.27;;
11342;SDS011;5726;42.160;24.746;2022-12-07T07:29:39;44.83;;;20.83;;
11342;SDS011;5726;42.160;24.746;2022-12-07T07:32:05;38.07;;;21.00;;
11342;SDS011;5726;42.160;24.746;2022-12-07T07:34:30;49.20;;;23.13;;
11342;SDS011;5726;42.160;24.746;2022-12-07T07:36:56;50.60;;;22.43;;
11342;SDS011;5726;42.160;24.746;2022-12-07T07:39:21;39.83;;;22.97;;
11342;SDS011;5726;42.160;24.746;2022-12-07T07:41:46;48.20;;;23.53;;
11342;SDS011;5726;42.160;24.746;2022-12-07T07:44:12;49.97;;;25.57;;
11342;SDS011;5726;42.160;24.746;2022-12-07T07:46:38;44.93;;;22.60;;
11342;SDS011;5726;42.160;24.746;2022-12-07T07:49:03;44.07;;;22.30;;
11342;SDS011;5726;42.160;24.746;2022-12-07T07:51:28;43.13;;;22.63;;
11342;SDS011;5726;42.160;24.746;2022-12-07T07:53:54;43.47;;;23.43;;
11342;SDS011;5726;42.160;24.746;2022-12-07T07:56:19;143.30;;;82.53;;
11342;SDS011;5726;42.160;24.746;2022-12-07T07:58:45;116.87;;;65.80;;
11342;SDS011;5726;42.160;24.746;2022-12-07T08:01:10;61.43;;;32.47;;
11342;SDS011;5726;42.160;24.746;2022-12-07T08:03:36;52.47;;;27.40;;
11342;SDS011;5726;42.160;24.746;2022-12-07T08:06:04;52.60;;;27.50;;
11342;SDS011;5726;42.160;24.746;2022-12-07T08:08:30;49.63;;;28.40;;
11342;SDS011;5726;42.160;24.746;2022-12-07T08:10:55;55.13;;;29.50;;
11342;SDS011;5726;42.160;24.746;2022-12-07T08:13:21;49.43;;;27.97;;
11342;SDS011;5726;42.160;24.746;2022-12-07T08:15:47;48.83;;;27.70;;
11342;SDS011;5726;42.160;24.746;2022-12-07T08:18:16;46.70;;;25.17;;
11342;SDS011;5726;42.160;24.746;2022-12-07T08:20:41;50.97;;;26.70;;
11342;SDS011;5726;42.160;24.746;2022-12-07T08:23:08;59.17;;;29.40;;
11342;SDS011;5726;42.160;24.746;2022-12-07T08:25:34;57.03;;;28.20;;
11342;SDS011;5726;42.160;24.746;2022-12-07T08:27:59;60.17;;;27.77;;
11342;SDS011;5726;42.160;24.746;2022-12-07T08:30:25;52.27;;;26.83;;
11342;SDS011;5726;42.160;24.746;2022-12-07T08:32:51;51.93;;;26.07;;
11342;SDS011;5726;42.160;24.746;2022-12-07T08:35:16;45.17;;;24.30;;
11342;SDS011;5726;42.160;24.746;2022-12-07T08:37:42;44.50;;;22.90;;
11342;SDS011;5726;42.160;24.746;2022-12-07T08:40:08;43.33;;;22.10;;
11342;SDS011;5726;42.160;24.746;2022-12-07T08:42:35;39.50;;;22.03;;
11342;SDS011;5726;42.160;24.746;2022-12-07T08:45:12;64.47;;;32.87;;
11342;SDS011;5726;42.160;24.746;2022-12-07T08:50:22;43.77;;;21.67;;
11342;SDS011;5726;42.160;24.746;2022-12-07T08:52:49;41.17;;;20.73;;
11342;SDS011;5726;42.160;24.746;2022-12-07T08:55:18;43.17;;;22.77;;
11342;SDS011;5726;42.160;24.746;2022-12-07T08:57:44;49.87;;;23.50;;
11342;SDS011;5726;42.160;24.746;2022-12-07T09:00:10;43.00;;;22.80;;
11342;SDS011;5726;42.160;24.746;2022-12-07T09:02:36;49.80;;;24.23;;
11342;SDS011;5726;42.160;24.746;2022-12-07T09:05:02;57.90;;;24.93;;
11342;SDS011;5726;42.160;24.746;2022-12-07T09:07:28;49.80;;;27.30;;
11342;SDS011;5726;42.160;24.746;2022-12-07T09:09:55;45.60;;;26.00;;
11342;SDS011;5726;42.160;24.746;2022-12-07T09:12:21;53.23;;;26.03;;
11342;SDS011;5726;42.160;24.746;2022-12-07T09:14:46;44.97;;;24.37;;
11342;SDS011;5726;42.160;24.746;2022-12-07T09:17:12;48.30;;;26.73;;
11342;SDS011;5726;42.160;24.746;2022-12-07T09:19:38;46.97;;;24.87;;
11342;SDS011;5726;42.160;24.746;2022-12-07T09:22:04;42.03;;;24.30;;
11342;SDS011;5726;42.160;24.746;2022-12-07T09:24:30;49.80;;;26.07;;
11342;SDS011;5726;42.160;24.746;2022-12-07T09:26:56;46.63;;;26.00;;
11342;SDS011;5726;42.160;24.746;2022-12-07T09:29:22;52.63;;;26.33;;
11342;SDS011;5726;42.160;24.746;2022-12-07T09:31:48;54.47;;;27.27;;
11342;SDS011;5726;42.160;24.746;2022-12-07T09:34:13;42.90;;;25.77;;
11342;SDS011;5726;42.160;24.746;2022-12-07T09:36:39;53.63;;;26.53;;
11342;SDS011;5726;42.160;24.746;2022-12-07T09:39:04;51.00;;;25.17;;
11342;SDS011;5726;42.160;24.746;2022-12-07T09:41:30;49.67;;;25.63;;
11342;SDS011;5726;42.160;24.746;2022-12-07T09:44:07;44.47;;;22.40;;
11342;SDS011;5726;42.160;24.746;2022-12-07T09:46:37;34.93;;;19.73;;
11342;SDS011;5726;42.160;24.746;2022-12-07T09:49:05;46.30;;;23.23;;
11342;SDS011;5726;42.160;24.746;2022-12-07T09:51:36;44.30;;;22.23;;
11342;SDS011;5726;42.160;24.746;2022-12-07T09:54:02;39.57;;;20.97;;
11342;SDS011;5726;42.160;24.746;2022-12-07T09:56:30;39.50;;;18.30;;
11342;SDS011;5726;42.160;24.746;2022-12-07T09:59:01;38.17;;;20.00;;
11342;SDS011;5726;42.160;24.746;2022-12-07T10:01:29;33.93;;;18.60;;
11342;SDS011;5726;42.160;24.746;2022-12-07T10:04:12;36.23;;;18.80;;
11342;SDS011;5726;42.160;24.746;2022-12-07T10:06:41;38.00;;;19.57;;
11342;SDS011;5726;42.160;24.746;2022-12-07T10:09:13;33.00;;;18.63;;
11342;SDS011;5726;42.160;24.746;2022-12-07T10:14:28;37.07;;;20.50;;
11342;SDS011;5726;42.160;24.746;2022-12-07T10:16:55;38.07;;;19.53;;
11342;SDS011;5726;42.160;24.746;2022-12-07T10:22:04;32.73;;;18.27;;
11342;SDS011;5726;42.160;24.746;2022-12-07T10:24:38;32.93;;;17.83;;
11342;SDS011;5726;42.160;24.746;2022-12-07T10:27:16;30.23;;;16.10;;
11342;SDS011;5726;42.160;24.746;2022-12-07T10:29:42;32.57;;;17.03;;
11342;SDS011;5726;42.160;24.746;2022-12-07T10:34:40;30.17;;;16.67;;
11342;SDS011;5726;42.160;24.746;2022-12-07T10:39:44;29.93;;;17.20;;
11342;SDS011;5726;42.160;24.746;2022-12-07T10:42:24;30.70;;;16.53;;
11342;SDS011;5726;42.160;24.746;2022-12-07T10:47:51;28.47;;;15.87;;
11342;SDS011;5726;42.160;24.746;2022-12-07T11:18:45;34.43;;;17.20;;
11342;SDS011;5726;42.160;24.746;2022-12-07T11:24:19;31.87;;;16.63;;
11342;SDS011;5726;42.160;24.746;2022-12-07T11:32:44;34.33;;;17.33;;
11342;SDS011;5726;42.160;24.746;2022-12-07T11:38:15;30.70;;;17.20;;
11342;SDS011;5726;42.160;24.746;2022-12-07T11:40:46;34.93;;;17.70;;
11342;SDS011;5726;42.160;24.746;2022-12-07T11:43:32;33.93;;;18.30;;
11342;SDS011;5726;42.160;24.746;2022-12-07T11:46:04;34.40;;;17.13;;
11342;SDS011;5726;42.160;24.746;2022-12-07T11:51:14;34.10;;;18.47;;
11342;SDS011;5726;42.160;24.746;2022-12-07T11:53:47;34.07;;;17.87;;
11342;SDS011;5726;42.160;24.746;2022-12-07T11:56:20;33.97;;;17.60;;
11342;SDS011;5726;42.160;24.746;2022-12-07T12:03:51;29.13;;;15.40;;
11342;SDS011;5726;42.160;24.746;2022-12-07T12:06:21;31.67;;;16.30;;
11342;SDS011;5726;42.160;24.746;2022-12-07T12:11:38;71.37;;;43.47;;
11342;SDS011;5726;42.160;24.746;2022-12-07T12:16:53;37.67;;;17.80;;
11342;SDS011;5726;42.160;24.746;2022-12-07T12:22:11;33.40;;;16.70;;
11342;SDS011;5726;42.160;24.746;2022-12-07T12:24:52;33.30;;;16.40;;
11342;SDS011;5726;42.160;24.746;2022-12-07T12:27:25;36.20;;;16.43;;
11342;SDS011;5726;42.160;24.746;2022-12-07T12:29:55;35.37;;;16.50;;
11342;SDS011;5726;42.160;24.746;2022-12-07T12:32:31;36.07;;;17.77;;
11342;SDS011;5726;42.160;24.746;2022-12-07T12:41:00;31.50;;;16.30;;
11342;SDS011;5726;42.160;24.746;2022-12-07T12:43:44;35.50;;;17.00;;
11342;SDS011;5726;42.160;24.746;2022-12-07T12:48:55;34.90;;;19.17;;
11342;SDS011;5726;42.160;24.746;2022-12-07T12:51:40;37.73;;;17.47;;
11342;SDS011;5726;42.160;24.746;2022-12-07T12:56:59;35.93;;;17.23;;
11342;SDS011;5726;42.160;24.746;2022-12-07T13:13:00;34.80;;;16.33;;
11342;SDS011;5726;42.160;24.746;2022-12-07T13:15:52;29.07;;;15.00;;
11342;SDS011;5726;42.160;24.746;2022-12-07T13:18:34;30.27;;;15.70;;
11342;SDS011;5726;42.160;24.746;2022-12-07T13:23:35;96.83;;;56.93;;
11342;SDS011;5726;42.160;24.746;2022-12-07T13:26:09;31.73;;;17.93;;
11342;SDS011;5726;42.160;24.746;2022-12-07T13:31:39;32.73;;;16.00;;
11342;SDS011;5726;42.160;24.746;2022-12-07T13:37:02;28.93;;;14.70;;
11342;SDS011;5726;42.160;24.746;2022-12-07T13:39:33;25.47;;;15.00;;
11342;SDS011;5726;42.160;24.746;2022-12-07T13:42:06;32.47;;;15.17;;
11342;SDS011;5726;42.160;24.746;2022-12-07T13:44:40;29.00;;;15.73;;
11342;SDS011;5726;42.160;24.746;2022-12-07T13:47:11;32.10;;;14.63;;
11342;SDS011;5726;42.160;24.746;2022-12-07T13:49:49;24.87;;;13.73;;
11342;SDS011;5726;42.160;24.746;2022-12-07T13:52:23;26.37;;;14.63;;
11342;SDS011;5726;42.160;24.746;2022-12-07T13:57:39;25.20;;;14.47;;
11342;SDS011;5726;42.160;24.746;2022-12-07T14:00:06;31.80;;;15.87;;
11342;SDS011;5726;42.160;24.746;2022-12-07T14:03:00;31.83;;;17.47;;
11342;SDS011;5726;42.160;24.746;2022-12-07T14:05:31;26.70;;;14.43;;
11342;SDS011;5726;42.160;24.746;2022-12-07T14:10:36;31.40;;;15.60;;
11342;SDS011;5726;42.160;24.746;2022-12-07T14:15:59;26.80;;;14.50;;
11342;SDS011;5726;42.160;24.746;2022-12-07T14:21:06;34.13;;;17.03;;
11342;SDS011;5726;42.160;24.746;2022-12-07T14:23:32;35.00;;;18.13;;
11342;SDS011;5726;42.160;24.746;2022-12-07T14:26:07;118.73;;;80.27;;
11342;SDS011;5726;42.160;24.746;2022-12-07T14:28:38;70.47;;;36.17;;
11342;SDS011;5726;42.160;24.746;2022-12-07T14:31:08;60.80;;;25.87;;
11342;SDS011;5726;42.160;24.746;2022-12-07T14:33:40;37.73;;;20.80;;
11342;SDS011;5726;42.160;24.746;2022-12-07T14:36:06;34.63;;;17.40;;
11342;SDS011;5726;42.160;24.746;2022-12-07T14:38:34;32.40;;;16.83;;
11342;SDS011;5726;42.160;24.746;2022-12-07T14:40:59;28.70;;;14.50;;
11342;SDS011;5726;42.160;24.746;2022-12-07T14:43:43;29.83;;;15.30;;
11342;SDS011;5726;42.160;24.746;2022-12-07T14:46:09;40.53;;;21.60;;
11342;SDS011;5726;42.160;24.746;2022-12-07T14:48:34;68.13;;;35.70;;
11342;SDS011;5726;42.160;24.746;2022-12-07T14:51:00;41.40;;;22.77;;
11342;SDS011;5726;42.160;24.746;2022-12-07T14:53:28;42.33;;;20.13;;
11342;SDS011;5726;42.160;24.746;2022-12-07T14:55:56;43.03;;;19.60;;
11342;SDS011;5726;42.160;24.746;2022-12-07T14:58:22;34.60;;;19.00;;
11342;SDS011;5726;42.160;24.746;2022-12-07T15:00:48;38.50;;;20.63;;
11342;SDS011;5726;42.160;24.746;2022-12-07T15:03:13;41.03;;;20.67;;
11342;SDS011;5726;42.160;24.746;2022-12-07T15:05:39;42.20;;;20.03;;
11342;SDS011;5726;42.160;24.746;2022-12-07T15:08:06;46.93;;;22.30;;
11342;SDS011;5726;42.160;24.746;2022-12-07T15:10:32;54.60;;;26.60;;
11342;SDS011;5726;42.160;24.746;2022-12-07T15:12:59;51.03;;;25.13;;
11342;SDS011;5726;42.160;24.746;2022-12-07T15:15:46;35.40;;;17.40;;
11342;SDS011;5726;42.160;24.746;2022-12-07T15:18:12;40.33;;;19.73;;
11342;SDS011;5726;42.160;24.746;2022-12-07T15:20:37;43.30;;;23.47;;
11342;SDS011;5726;42.160;24.746;2022-12-07T15:23:03;55.77;;;27.63;;
11342;SDS011;5726;42.160;24.746;2022-12-07T15:25:28;57.13;;;23.23;;
11342;SDS011;5726;42.160;24.746;2022-12-07T15:27:54;43.33;;;22.33;;
11342;SDS011;5726;42.160;24.746;2022-12-07T15:30:19;54.03;;;22.60;;
11342;SDS011;5726;42.160;24.746;2022-12-07T15:32:48;51.73;;;23.33;;
11342;SDS011;5726;42.160;24.746;2022-12-07T15:35:15;62.67;;;27.03;;
11342;SDS011;5726;42.160;24.746;2022-12-07T15:37:40;72.30;;;26.20;;
11342;SDS011;5726;42.160;24.746;2022-12-07T15:40:06;54.03;;;25.97;;
11342;SDS011;5726;42.160;24.746;2022-12-07T15:42:32;62.40;;;28.03;;
11342;SDS011;5726;42.160;24.746;2022-12-07T15:44:57;59.10;;;28.23;;
11342;SDS011;5726;42.160;24.746;2022-12-07T15:47:29;74.50;;;34.70;;
11342;SDS011;5726;42.160;24.746;2022-12-07T15:50:04;75.57;;;34.90;;
11342;SDS011;5726;42.160;24.746;2022-12-07T15:52:32;75.13;;;33.13;;
11342;SDS011;5726;42.160;24.746;2022-12-07T15:54:57;122.37;;;57.17;;
11342;SDS011;5726;42.160;24.746;2022-12-07T15:57:25;84.03;;;40.30;;
11342;SDS011;5726;42.160;24.746;2022-12-07T15:59:51;73.40;;;35.00;;
11342;SDS011;5726;42.160;24.746;2022-12-07T16:02:17;80.47;;;35.83;;
11342;SDS011;5726;42.160;24.746;2022-12-07T16:04:42;94.23;;;46.87;;
11342;SDS011;5726;42.160;24.746;2022-12-07T16:07:08;74.93;;;36.63;;
11342;SDS011;5726;42.160;24.746;2022-12-07T16:09:33;85.80;;;39.80;;
11342;SDS011;5726;42.160;24.746;2022-12-07T16:11:59;86.93;;;45.47;;
11342;SDS011;5726;42.160;24.746;2022-12-07T16:14:24;91.63;;;46.70;;
11342;SDS011;5726;42.160;24.746;2022-12-07T16:16:50;90.40;;;43.13;;
11342;SDS011;5726;42.160;24.746;2022-12-07T16:19:15;104.37;;;49.60;;
11342;SDS011;5726;42.160;24.746;2022-12-07T16:21:41;100.63;;;48.53;;
11342;SDS011;5726;42.160;24.746;2022-12-07T16:24:07;105.70;;;49.33;;
11342;SDS011;5726;42.160;24.746;2022-12-07T16:26:33;107.40;;;49.80;;
11342;SDS011;5726;42.160;24.746;2022-12-07T16:28:59;108.43;;;50.40;;
11342;SDS011;5726;42.160;24.746;2022-12-07T16:31:26;111.17;;;50.33;;
11342;SDS011;5726;42.160;24.746;2022-12-07T16:33:53;126.83;;;51.50;;
11342;SDS011;5726;42.160;24.746;2022-12-07T16:36:20;109.93;;;49.10;;
11342;SDS011;5726;42.160;24.746;2022-12-07T16:38:47;105.20;;;46.20;;
11342;SDS011;5726;42.160;24.746;2022-12-07T16:41:13;90.07;;;43.07;;
11342;SDS011;5726;42.160;24.746;2022-12-07T16:43:39;83.13;;;37.97;;
11342;SDS011;5726;42.160;24.746;2022-12-07T16:46:05;83.00;;;35.30;;
11342;SDS011;5726;42.160;24.746;2022-12-07T16:48:31;71.80;;;32.67;;
11342;SDS011;5726;42.160;24.746;2022-12-07T16:51:02;61.23;;;26.83;;
11342;SDS011;5726;42.160;24.746;2022-12-07T16:53:32;56.33;;;23.80;;
11342;SDS011;5726;42.160;24.746;2022-12-07T16:55:57;53.77;;;26.10;;
11342;SDS011;5726;42.160;24.746;2022-12-07T16:58:22;60.90;;;24.97;;